Terminal Aerodrome Forecast
Issued by NWS

Home | Current Version | Previous Version | Text Only | Print | Product List | Glossary On
Versions: 1 2 3 4 5 6 7 8 9 10 11 12 13 14 15 16
000
FTUS46 KSGX 260520
TAFSNA
TAF
KSNA 260520Z 2606/2706 VRB06KT P6SM FEW004
     FM261200 VRB03KT 6SM HZ VCFG SCT003
      TEMPO 2612/2614 1SM BR VV003
     FM261800 22010G17KT P6SM SCT200
     FM270400 22005KT P6SM SCT250=

USA.gov is the U.S. government's official web portal to all federal, state and local government web resources and services.